Time;durP1;ratioP1;P1;durP2;ratioP2;P2;SDS_P1;SDS_P2;PMS_P1;PMS_P2;Temp;Humidity;BMP_temperature;BMP_pressure;BME280_temperature;BME280_humidity;BME280_pressure;Samples;Min_cycle;Max_cycle;Signal;HPM_P1;HPM_P2
2022/01/28 00:00:13;;;;;;;69.20;11.45;;;;;;;;;;5073257;28;20213;-74
2022/01/28 00:03:01;;;;;;;68.28;9.30;;;;;;;;;;5073789;28;20668;-74
2022/01/28 00:05:28;;;;;;;69.55;9.70;;;;;;;;;;5073580;28;20233;-73
2022/01/28 00:07:57;;;;;;;67.82;9.98;;;;;;;;;;5073602;28;20301;-73
2022/01/28 00:10:25;;;;;;;66.30;8.77;;;;;;;;;;5073809;28;20292;-73
2022/01/28 00:15:37;;;;;;;69.28;10.18;;;;;;;;;;5064595;28;20198;-73
2022/01/28 00:21:07;;;;;;;68.43;9.88;;;;;;;;;;5073169;28;20614;-73
2022/01/28 00:37:48;;;;;;;67.40;9.35;;;;;;;;;;5072919;28;20204;-73
2022/01/28 00:40:15;;;;;;;66.97;9.50;;;;;;;;;;5072921;28;20216;-73
2022/01/28 00:42:42;;;;;;;65.90;8.50;;;;;;;;;;5072801;28;20234;-73
2022/01/28 00:45:10;;;;;;;70.63;9.55;;;;;;;;;;5073202;28;20296;-73
2022/01/28 00:47:37;;;;;;;68.45;9.32;;;;;;;;;;5072817;28;20235;-73
2022/01/28 00:50:04;;;;;;;67.00;9.55;;;;;;;;;;5073033;28;20209;-73
2022/01/28 00:52:31;;;;;;;67.55;8.82;;;;;;;;;;5072540;28;20236;-73
2022/01/28 00:54:59;;;;;;;66.40;8.52;;;;;;;;;;5072799;28;20205;-73
2022/01/28 00:57:27;;;;;;;64.72;8.32;;;;;;;;;;5072421;28;20202;-73
2022/01/28 00:59:54;;;;;;;65.60;7.55;;;;;;;;;;5072886;28;20296;-73
2022/01/28 01:02:21;;;;;;;66.00;8.25;;;;;;;;;;5072622;28;20694;-73
2022/01/28 01:04:49;;;;;;;66.18;9.23;;;;;;;;;;5072630;28;20206;-73
2022/01/28 01:07:16;;;;;;;65.60;7.40;;;;;;;;;;5072225;28;20222;-73
2022/01/28 01:09:43;;;;;;;70.93;8.85;;;;;;;;;;5072551;28;20212;-73
2022/01/28 01:12:11;;;;;;;66.25;8.13;;;;;;;;;;5072250;28;20296;-73
2022/01/28 01:14:41;;;;;;;65.75;7.93;;;;;;;;;;5072486;28;20208;-73
2022/01/28 01:17:20;;;;;;;67.43;9.75;;;;;;;;;;5072288;28;20720;-73
2022/01/28 01:19:51;;;;;;;68.10;8.70;;;;;;;;;;5072248;28;20205;-73
2022/01/28 01:22:19;;;;;;;64.97;7.97;;;;;;;;;;5072056;28;20221;-73
2022/01/28 01:24:53;;;;;;;65.05;8.70;;;;;;;;;;5072394;28;20253;-73
2022/01/28 01:27:20;;;;;;;66.97;8.23;;;;;;;;;;5071815;28;20226;-72
2022/01/28 01:29:49;;;;;;;67.15;9.15;;;;;;;;;;5072556;28;20248;-73
2022/01/28 01:32:18;;;;;;;62.67;7.30;;;;;;;;;;5073064;28;20244;-73
2022/01/28 01:34:45;;;;;;;67.57;8.35;;;;;;;;;;5071960;28;20256;-73
2022/01/28 01:37:13;;;;;;;64.70;8.60;;;;;;;;;;5071671;28;20210;-73
2022/01/28 01:39:42;;;;;;;67.63;8.18;;;;;;;;;;5072305;28;20210;-73
2022/01/28 01:42:19;;;;;;;66.60;9.00;;;;;;;;;;5072021;28;20201;-73
2022/01/28 01:45:26;;;;;;;68.97;8.45;;;;;;;;;;5072068;28;20213;-73
2022/01/28 01:53:17;;;;;;;65.18;7.65;;;;;;;;;;5071940;28;20216;-73
2022/01/28 01:55:45;;;;;;;66.07;8.48;;;;;;;;;;5071737;28;20304;-72
2022/01/28 01:58:12;;;;;;;67.40;9.48;;;;;;;;;;5071745;28;20209;-73
2022/01/28 02:00:39;;;;;;;64.63;8.15;;;;;;;;;;5071649;28;20296;-73
2022/01/28 02:03:07;;;;;;;71.45;9.25;;;;;;;;;;5071761;28;20226;-73
2022/01/28 02:05:35;;;;;;;69.30;9.18;;;;;;;;;;5071645;28;20201;-73
2022/01/28 02:08:06;;;;;;;67.40;9.00;;;;;;;;;;5071412;28;20455;-73
2022/01/28 02:10:34;;;;;;;68.78;9.48;;;;;;;;;;5072042;28;20236;-73
2022/01/28 02:13:01;;;;;;;67.72;8.95;;;;;;;;;;5071548;28;20736;-73
2022/01/28 02:15:28;;;;;;;68.70;9.38;;;;;;;;;;5071800;28;20244;-73
2022/01/28 02:17:55;;;;;;;71.30;9.35;;;;;;;;;;5071532;28;20233;-73
2022/01/28 02:20:29;;;;;;;67.22;9.85;;;;;;;;;;5072271;28;20210;-73
2022/01/28 02:22:56;;;;;;;66.65;8.40;;;;;;;;;;5074055;28;20233;-73
2022/01/28 02:25:24;;;;;;;65.82;8.13;;;;;;;;;;5076350;28;20669;-73
2022/01/28 02:27:51;;;;;;;69.70;9.43;;;;;;;;;;5081475;28;20262;-73
2022/01/28 02:30:18;;;;;;;66.35;9.00;;;;;;;;;;5084846;28;20300;-72
2022/01/28 02:32:48;;;;;;;69.60;9.13;;;;;;;;;;5083809;28;20653;-72
2022/01/28 02:35:15;;;;;;;64.13;7.60;;;;;;;;;;5083950;28;20214;-73
2022/01/28 02:37:43;;;;;;;74.50;9.10;;;;;;;;;;5083803;28;20681;-73
2022/01/28 02:40:11;;;;;;;70.57;9.32;;;;;;;;;;5086100;28;20236;-72
2022/01/28 02:42:55;;;;;;;66.03;9.10;;;;;;;;;;5074089;28;20236;-73
2022/01/28 02:45:30;;;;;;;65.72;7.80;;;;;;;;;;5075251;28;20209;-72
2022/01/28 02:48:01;;;;;;;66.63;8.13;;;;;;;;;;5074858;28;20276;-72
2022/01/28 02:50:32;;;;;;;68.28;9.93;;;;;;;;;;5075270;28;20209;-73
2022/01/28 02:53:06;;;;;;;67.38;8.20;;;;;;;;;;5075049;28;20222;-73
2022/01/28 02:55:38;;;;;;;67.95;8.30;;;;;;;;;;5075047;28;20584;-72
2022/01/28 02:58:18;;;;;;;67.25;8.90;;;;;;;;;;5074920;28;20280;-72
2022/01/28 03:00:46;;;;;;;70.10;8.90;;;;;;;;;;5075100;28;20202;-73
2022/01/28 03:03:13;;;;;;;67.60;8.90;;;;;;;;;;5074909;28;20221;-73
2022/01/28 03:05:41;;;;;;;65.43;8.32;;;;;;;;;;5074882;28;20239;-73
2022/01/28 03:08:09;;;;;;;69.65;9.75;;;;;;;;;;5074408;28;20236;-73
2022/01/28 03:10:49;;;;;;;66.38;9.05;;;;;;;;;;5074959;28;20247;-73
2022/01/28 03:13:45;;;;;;;66.70;8.73;;;;;;;;;;5074749;28;20221;-73
2022/01/28 03:16:15;;;;;;;66.93;9.02;;;;;;;;;;5074556;28;20206;-73
2022/01/28 03:18:51;;;;;;;68.75;9.48;;;;;;;;;;5074228;28;20213;-73
2022/01/28 03:21:26;;;;;;;70.05;9.48;;;;;;;;;;5074839;28;20662;-73
2022/01/28 03:23:55;;;;;;;66.07;8.43;;;;;;;;;;5075158;28;20253;-73
2022/01/28 03:26:24;;;;;;;66.10;7.53;;;;;;;;;;5074799;28;20247;-73
2022/01/28 03:28:51;;;;;;;67.32;9.02;;;;;;;;;;5074044;28;20202;-73
2022/01/28 03:31:18;;;;;;;68.70;8.65;;;;;;;;;;5074696;28;20202;-72
2022/01/28 03:33:45;;;;;;;68.35;8.38;;;;;;;;;;5072867;28;20225;-73
2022/01/28 03:36:14;;;;;;;65.10;8.25;;;;;;;;;;5074199;28;20719;-73
2022/01/28 03:38:41;;;;;;;70.68;9.38;;;;;;;;;;5074069;28;20587;-73
2022/01/28 03:41:13;;;;;;;66.07;7.50;;;;;;;;;;5074221;28;20205;-73
2022/01/28 03:43:40;;;;;;;66.10;8.60;;;;;;;;;;5074306;28;20631;-73
2022/01/28 03:46:09;;;;;;;68.32;8.50;;;;;;;;;;5074423;28;20209;-72
2022/01/28 03:48:36;;;;;;;69.20;9.18;;;;;;;;;;5073729;28;20232;-73
2022/01/28 03:51:04;;;;;;;67.70;8.05;;;;;;;;;;5074167;28;20209;-73
2022/01/28 03:53:31;;;;;;;66.28;9.15;;;;;;;;;;5073879;28;20236;-73
2022/01/28 03:55:58;;;;;;;67.53;9.38;;;;;;;;;;5073833;28;20201;-73
2022/01/28 03:58:27;;;;;;;68.95;8.82;;;;;;;;;;5073763;28;20208;-72
2022/01/28 04:00:57;;;;;;;67.78;8.60;;;;;;;;;;5073724;28;20293;-72
2022/01/28 04:03:39;;;;;;;67.32;8.57;;;;;;;;;;5073630;28;20237;-73
2022/01/28 04:11:40;;;;;;;63.83;7.50;;;;;;;;;;5073532;28;20204;-73
2022/01/28 04:14:12;;;;;;;64.07;7.30;;;;;;;;;;5073502;28;20320;-73
2022/01/28 04:19:24;;;;;;;67.47;8.23;;;;;;;;;;5073315;28;20639;-73
2022/01/28 04:21:52;;;;;;;74.25;9.27;;;;;;;;;;5073435;28;20212;-73
2022/01/28 04:24:19;;;;;;;67.10;8.63;;;;;;;;;;5073035;28;20805;-74
2022/01/28 04:26:46;;;;;;;69.57;8.48;;;;;;;;;;5073300;28;20225;-73
2022/01/28 04:29:14;;;;;;;67.15;8.95;;;;;;;;;;5072990;28;20209;-72
2022/01/28 04:31:45;;;;;;;63.85;6.95;;;;;;;;;;5073431;28;20205;-73
2022/01/28 04:34:12;;;;;;;68.22;8.55;;;;;;;;;;5073150;28;20709;-73
2022/01/28 04:36:48;;;;;;;68.13;7.95;;;;;;;;;;5073086;28;20223;-73
2022/01/28 04:39:21;;;;;;;66.45;8.63;;;;;;;;;;5072876;28;20212;-73
2022/01/28 04:41:58;;;;;;;68.97;7.88;;;;;;;;;;5072893;28;20296;-73
2022/01/28 04:44:35;;;;;;;65.80;8.32;;;;;;;;;;5073126;28;20251;-73
2022/01/28 04:47:07;;;;;;;75.47;8.90;;;;;;;;;;5072831;28;20316;-73
2022/01/28 04:49:49;;;;;;;66.75;8.00;;;;;;;;;;5072956;28;20253;-73
2022/01/28 04:55:06;;;;;;;69.63;9.32;;;;;;;;;;5070906;28;20202;-73
2022/01/28 04:57:43;;;;;;;68.35;8.68;;;;;;;;;;5072634;28;20220;-73
2022/01/28 05:00:21;;;;;;;69.90;9.68;;;;;;;;;;5072820;28;20205;-73
2022/01/28 05:03:06;;;;;;;64.20;7.85;;;;;;;;;;5072419;28;20601;-73
2022/01/28 05:06:08;;;;;;;69.03;8.77;;;;;;;;;;5072817;28;20205;-73
2022/01/28 05:17:17;;;;;;;66.80;9.15;;;;;;;;;;5072985;28;20252;-73
2022/01/28 05:27:58;;;;;;;71.30;10.82;;;;;;;;;;5071469;28;20228;-73
2022/01/28 05:30:25;;;;;;;70.50;9.23;;;;;;;;;;5072523;28;20209;-73
2022/01/28 05:32:54;;;;;;;74.50;10.70;;;;;;;;;;5071818;28;20324;-73
2022/01/28 05:35:21;;;;;;;74.95;10.68;;;;;;;;;;5072048;28;20300;-73
2022/01/28 05:37:48;;;;;;;69.65;10.82;;;;;;;;;;5071642;28;20696;-73
2022/01/28 05:40:15;;;;;;;72.75;10.65;;;;;;;;;;5071977;28;20724;-73
2022/01/28 05:42:42;;;;;;;71.55;10.07;;;;;;;;;;5072087;28;20233;-73
2022/01/28 05:45:09;;;;;;;74.28;11.35;;;;;;;;;;5072283;28;20201;-73
2022/01/28 05:47:37;;;;;;;75.85;11.48;;;;;;;;;;5071754;28;20650;-73
2022/01/28 05:50:06;;;;;;;69.78;10.10;;;;;;;;;;5071891;28;20206;-73
2022/01/28 05:52:33;;;;;;;71.70;11.13;;;;;;;;;;5071668;28;20233;-74
2022/01/28 05:55:00;;;;;;;70.07;11.50;;;;;;;;;;5072042;28;20233;-74
2022/01/28 05:57:27;;;;;;;69.60;9.15;;;;;;;;;;5071163;28;20214;-74
2022/01/28 05:59:54;;;;;;;69.53;10.60;;;;;;;;;;5071814;28;20215;-74
2022/01/28 06:02:21;;;;;;;70.13;9.57;;;;;;;;;;5071725;28;20316;-73
2022/01/28 06:04:49;;;;;;;75.32;11.40;;;;;;;;;;5071772;28;20586;-74
2022/01/28 06:07:19;;;;;;;74.13;11.63;;;;;;;;;;5071186;28;20263;-74
2022/01/28 06:09:47;;;;;;;74.88;11.90;;;;;;;;;;5071880;28;20209;-74
2022/01/28 06:12:14;;;;;;;69.32;10.85;;;;;;;;;;5071765;28;20208;-73
2022/01/28 06:14:41;;;;;;;69.90;9.45;;;;;;;;;;5071743;28;20205;-73
2022/01/28 06:17:08;;;;;;;72.18;11.30;;;;;;;;;;5071503;28;20296;-73
2022/01/28 06:19:35;;;;;;;71.40;11.00;;;;;;;;;;5071487;28;20205;-73
2022/01/28 06:22:02;;;;;;;73.68;11.48;;;;;;;;;;5071706;28;20301;-74
2022/01/28 06:24:31;;;;;;;74.35;9.27;;;;;;;;;;5071620;28;20201;-73
2022/01/28 06:26:58;;;;;;;70.68;11.00;;;;;;;;;;5071513;28;20586;-74
2022/01/28 06:29:25;;;;;;;69.97;9.77;;;;;;;;;;5071705;28;20248;-74
2022/01/28 06:31:52;;;;;;;73.00;10.95;;;;;;;;;;5071477;28;20206;-74
2022/01/28 06:34:19;;;;;;;71.47;10.70;;;;;;;;;;5071560;28;20690;-74
2022/01/28 06:36:47;;;;;;;70.80;10.50;;;;;;;;;;5071567;28;20219;-74
2022/01/28 06:39:14;;;;;;;73.55;10.85;;;;;;;;;;5071279;28;20202;-70
2022/01/28 06:41:42;;;;;;;74.35;11.70;;;;;;;;;;5071431;28;20212;-74
2022/01/28 06:44:10;;;;;;;69.85;10.93;;;;;;;;;;5071286;28;20247;-73
2022/01/28 06:46:37;;;;;;;70.70;10.60;;;;;;;;;;5071491;28;20210;-73
2022/01/28 06:49:05;;;;;;;71.45;11.75;;;;;;;;;;5071175;28;20234;-73
2022/01/28 06:51:34;;;;;;;70.07;11.20;;;;;;;;;;5071743;28;20209;-73
2022/01/28 06:54:02;;;;;;;72.35;10.80;;;;;;;;;;5071335;28;20230;-73
2022/01/28 06:56:29;;;;;;;73.35;13.35;;;;;;;;;;5071224;28;20213;-73
2022/01/28 06:58:58;;;;;;;74.30;11.32;;;;;;;;;;5070926;28;20253;-73
2022/01/28 07:01:25;;;;;;;74.50;11.95;;;;;;;;;;5071099;28;20663;-73
2022/01/28 07:03:52;;;;;;;74.55;12.18;;;;;;;;;;5070891;28;20264;-73
2022/01/28 07:06:19;;;;;;;71.43;12.02;;;;;;;;;;5071129;28;20201;-73
2022/01/28 07:08:47;;;;;;;69.80;11.70;;;;;;;;;;5072998;28;20222;-74
2022/01/28 07:11:14;;;;;;;72.15;9.82;;;;;;;;;;5075360;28;20232;-74
2022/01/28 07:13:41;;;;;;;72.18;12.55;;;;;;;;;;5074516;28;20264;-73
2022/01/28 07:16:10;;;;;;;71.75;11.35;;;;;;;;;;5074837;28;20213;-73
2022/01/28 07:18:37;;;;;;;70.18;10.30;;;;;;;;;;5074296;28;20212;-73
2022/01/28 07:21:04;;;;;;;72.35;11.00;;;;;;;;;;5074670;28;20209;-74
2022/01/28 07:23:31;;;;;;;72.40;10.60;;;;;;;;;;5074799;28;20257;-74
2022/01/28 07:25:58;;;;;;;67.85;9.40;;;;;;;;;;5074445;28;20213;-74
2022/01/28 07:28:26;;;;;;;71.28;9.45;;;;;;;;;;5073995;28;20226;-72
2022/01/28 07:30:53;;;;;;;71.47;10.63;;;;;;;;;;5074628;28;20237;-74
2022/01/28 07:33:22;;;;;;;75.22;11.93;;;;;;;;;;5074467;28;20316;-73
2022/01/28 07:35:49;;;;;;;70.18;9.60;;;;;;;;;;5074323;28;20217;-73
2022/01/28 07:38:16;;;;;;;70.57;10.77;;;;;;;;;;5074078;28;20288;-74
2022/01/28 07:40:43;;;;;;;71.03;10.50;;;;;;;;;;5074243;28;20288;-74
2022/01/28 07:43:11;;;;;;;67.13;9.63;;;;;;;;;;5074000;28;20222;-73
2022/01/28 07:45:38;;;;;;;71.32;11.00;;;;;;;;;;5074094;28;20296;-74
2022/01/28 07:48:05;;;;;;;68.05;10.10;;;;;;;;;;5073942;28;20225;-74
2022/01/28 07:50:34;;;;;;;71.40;10.02;;;;;;;;;;5073931;28;20700;-74
2022/01/28 07:53:03;;;;;;;70.50;10.00;;;;;;;;;;5074344;28;20221;-73
2022/01/28 07:55:30;;;;;;;70.38;10.48;;;;;;;;;;5073574;28;20241;-73
2022/01/28 07:57:58;;;;;;;68.75;8.88;;;;;;;;;;5073802;28;20209;-75
2022/01/28 08:00:27;;;;;;;70.72;9.13;;;;;;;;;;5074079;28;20595;-75
2022/01/28 08:02:54;;;;;;;64.82;8.32;;;;;;;;;;5073866;28;20230;-74
2022/01/28 08:05:21;;;;;;;67.75;9.50;;;;;;;;;;5074012;28;20293;-75
2022/01/28 08:07:51;;;;;;;65.57;8.68;;;;;;;;;;5073422;28;20226;-75
2022/01/28 08:10:19;;;;;;;66.40;8.00;;;;;;;;;;5073613;28;20300;-75
2022/01/28 08:12:47;;;;;;;71.45;10.57;;;;;;;;;;5073491;28;20232;-75
2022/01/28 08:15:14;;;;;;;71.78;9.80;;;;;;;;;;5068028;28;20305;-72
2022/01/28 08:17:41;;;;;;;67.35;9.18;;;;;;;;;;5072949;28;20205;-73
2022/01/28 08:20:09;;;;;;;69.88;9.23;;;;;;;;;;5071248;28;20216;-73
2022/01/28 08:22:44;;;;;;;71.72;11.38;;;;;;;;;;5072171;28;20309;-73
2022/01/28 08:25:13;;;;;;;69.10;9.52;;;;;;;;;;5072745;28;20201;-73
2022/01/28 08:27:40;;;;;;;72.63;11.38;;;;;;;;;;5072433;28;20202;-73
2022/01/28 08:30:08;;;;;;;68.07;9.35;;;;;;;;;;5073006;28;20216;-73
2022/01/28 08:32:35;;;;;;;69.18;9.48;;;;;;;;;;5072599;28;20230;-73
2022/01/28 08:35:02;;;;;;;66.75;8.30;;;;;;;;;;5072401;28;20773;-73
2022/01/28 08:37:29;;;;;;;69.50;8.55;;;;;;;;;;5072888;28;20205;-72
2022/01/28 08:39:56;;;;;;;66.85;8.15;;;;;;;;;;5072700;28;20240;-71
2022/01/28 08:42:25;;;;;;;64.63;8.32;;;;;;;;;;5072784;28;20309;-71
2022/01/28 08:44:52;;;;;;;69.82;8.25;;;;;;;;;;5072538;28;20209;-71
2022/01/28 08:47:19;;;;;;;66.53;7.65;;;;;;;;;;5072562;28;20297;-70
2022/01/28 08:49:46;;;;;;;69.57;7.68;;;;;;;;;;5072489;28;20315;-71
2022/01/28 08:52:14;;;;;;;63.90;7.45;;;;;;;;;;5071020;28;20205;-71
2022/01/28 08:54:41;;;;;;;64.57;7.47;;;;;;;;;;5072764;28;20248;-71
2022/01/28 08:57:09;;;;;;;68.07;8.10;;;;;;;;;;5072585;28;20294;-73
2022/01/28 08:59:39;;;;;;;66.78;8.25;;;;;;;;;;5072741;28;20296;-72
2022/01/28 09:02:06;;;;;;;65.93;7.03;;;;;;;;;;5072774;28;20209;-72
2022/01/28 09:04:33;;;;;;;66.47;8.07;;;;;;;;;;5072944;28;20288;-71
2022/01/28 09:07:00;;;;;;;69.45;7.20;;;;;;;;;;5072328;28;20201;-72
2022/01/28 09:09:28;;;;;;;70.13;8.00;;;;;;;;;;5072305;28;20293;-71
2022/01/28 09:12:07;;;;;;;68.00;7.22;;;;;;;;;;5072211;28;20308;-71
2022/01/28 09:14:34;;;;;;;67.40;8.35;;;;;;;;;;5072035;28;20201;-71
2022/01/28 09:17:03;;;;;;;65.40;6.72;;;;;;;;;;5072462;28;20300;-72
2022/01/28 09:19:30;;;;;;;65.65;7.20;;;;;;;;;;5072139;28;20216;-71
2022/01/28 09:21:57;;;;;;;63.90;6.45;;;;;;;;;;5072609;28;20205;-69
2022/01/28 09:24:24;;;;;;;69.65;6.00;;;;;;;;;;5068827;28;20297;-71
2022/01/28 09:26:53;;;;;;;68.47;6.82;;;;;;;;;;5051627;28;20206;-71
2022/01/28 09:29:21;;;;;;;62.85;6.07;;;;;;;;;;5051885;28;20222;-71
2022/01/28 09:31:49;;;;;;;71.93;7.95;;;;;;;;;;5051548;28;20203;-71
2022/01/28 09:34:17;;;;;;;66.85;8.02;;;;;;;;;;5052258;28;20321;-72
2022/01/28 09:36:44;;;;;;;62.50;6.35;;;;;;;;;;5052030;28;20259;-72
2022/01/28 09:39:13;;;;;;;63.45;6.57;;;;;;;;;;5051767;28;20237;-71
2022/01/28 09:41:40;;;;;;;66.75;6.97;;;;;;;;;;5051999;28;20245;-71
2022/01/28 09:44:10;;;;;;;67.00;6.40;;;;;;;;;;5051852;28;20236;-71
2022/01/28 09:46:38;;;;;;;62.57;5.63;;;;;;;;;;5051587;28;20457;-71
2022/01/28 09:49:05;;;;;;;66.17;6.60;;;;;;;;;;5051659;28;20575;-71
2022/01/28 09:51:34;;;;;;;63.87;5.10;;;;;;;;;;5052129;28;20544;-71
2022/01/28 09:54:01;;;;;;;66.03;5.90;;;;;;;;;;5052226;28;20552;-72
2022/01/28 09:56:30;;;;;;;63.20;5.67;;;;;;;;;;5054843;28;20455;-72
2022/01/28 09:58:57;;;;;;;68.30;7.07;;;;;;;;;;5071778;28;20886;-72
2022/01/28 10:01:25;;;;;;;61.57;5.10;;;;;;;;;;5071642;28;21029;-71
2022/01/28 10:04:00;;;;;;;61.17;5.32;;;;;;;;;;5071441;28;20972;-72
2022/01/28 10:06:31;;;;;;;61.03;4.80;;;;;;;;;;5071488;28;20204;-72
2022/01/28 10:09:02;;;;;;;60.77;4.97;;;;;;;;;;5071085;28;20229;-73
2022/01/28 10:11:29;;;;;;;62.27;5.17;;;;;;;;;;5071957;28;20509;-72
2022/01/28 10:14:04;;;;;;;61.30;5.80;;;;;;;;;;5071639;28;20582;-72
2022/01/28 10:16:31;;;;;;;65.00;4.90;;;;;;;;;;5071786;28;20450;-72
2022/01/28 10:18:59;;;;;;;62.15;5.70;;;;;;;;;;5071395;28;20830;-72
2022/01/28 10:21:27;;;;;;;62.30;5.60;;;;;;;;;;5071538;28;20215;-72
2022/01/28 10:24:12;;;;;;;60.55;5.00;;;;;;;;;;5071510;28;20524;-72
2022/01/28 10:26:42;;;;;;;62.67;5.07;;;;;;;;;;5071237;28;20639;-72
2022/01/28 10:29:11;;;;;;;64.87;5.67;;;;;;;;;;5071191;28;20590;-72
2022/01/28 10:31:39;;;;;;;61.30;4.83;;;;;;;;;;5071501;28;20456;-72
2022/01/28 10:34:18;;;;;;;71.83;5.20;;;;;;;;;;5054605;28;20551;-72
2022/01/28 10:36:46;;;;;;;63.97;5.50;;;;;;;;;;5051392;28;20466;-72
2022/01/28 10:39:17;;;;;;;62.80;5.40;;;;;;;;;;5051014;28;20449;-72
2022/01/28 10:41:54;;;;;;;64.70;4.70;;;;;;;;;;5051438;28;20448;-72
2022/01/28 10:44:21;;;;;;;61.90;4.40;;;;;;;;;;5054214;28;20464;-72
2022/01/28 10:46:52;;;;;;;60.30;4.30;;;;;;;;;;5055171;28;20444;-73
2022/01/28 10:49:19;;;;;;;63.37;4.70;;;;;;;;;;5058388;28;20484;-72
2022/01/28 10:51:49;;;;;;;65.37;5.60;;;;;;;;;;5064151;28;20520;-72
2022/01/28 10:54:16;;;;;;;64.43;4.73;;;;;;;;;;5061951;28;20530;-72
2022/01/28 10:56:48;;;;;;;62.30;4.20;;;;;;;;;;5056768;28;20445;-72
2022/01/28 10:59:17;;;;;;;62.30;4.30;;;;;;;;;;5056590;28;20754;-73
2022/01/28 11:01:45;;;;;;;61.10;4.73;;;;;;;;;;5056992;28;20466;-73
2022/01/28 11:04:12;;;;;;;62.57;4.40;;;;;;;;;;5057430;28;21059;-72
2022/01/28 11:06:40;;;;;;;65.70;4.13;;;;;;;;;;5074107;28;20455;-72
2022/01/28 11:09:08;;;;;;;61.07;4.43;;;;;;;;;;5074219;28;20575;-72
2022/01/28 11:11:35;;;;;;;63.73;4.53;;;;;;;;;;5074693;28;20616;-73
2022/01/28 11:14:03;;;;;;;61.70;4.37;;;;;;;;;;5074642;28;20501;-72
2022/01/28 11:16:31;;;;;;;65.77;4.70;;;;;;;;;;5075461;28;20542;-75
2022/01/28 11:18:59;;;;;;;64.03;5.60;;;;;;;;;;5074409;28;20447;-75
2022/01/28 11:21:32;;;;;;;62.10;4.20;;;;;;;;;;5074762;28;20451;-71
2022/01/28 11:24:04;;;;;;;61.37;4.73;;;;;;;;;;5074276;28;20471;-72
2022/01/28 11:26:35;;;;;;;61.00;4.67;;;;;;;;;;5074193;28;20971;-72
2022/01/28 11:29:10;;;;;;;66.00;4.80;;;;;;;;;;5073619;28;20487;-73
2022/01/28 11:31:48;;;;;;;64.30;4.83;;;;;;;;;;5072674;28;20543;-72
2022/01/28 11:34:16;;;;;;;62.10;5.20;;;;;;;;;;5074085;28;20471;-73
2022/01/28 11:36:43;;;;;;;63.20;5.10;;;;;;;;;;5074356;28;20948;-73
2022/01/28 11:39:21;;;;;;;64.30;5.50;;;;;;;;;;5074341;28;20808;-73
2022/01/28 11:42:00;;;;;;;63.23;5.33;;;;;;;;;;5074316;28;20491;-73
2022/01/28 11:44:54;;;;;;;61.70;5.63;;;;;;;;;;5074013;28;20535;-73
2022/01/28 11:47:23;;;;;;;62.37;5.23;;;;;;;;;;5073338;28;20474;-73
2022/01/28 11:50:01;;;;;;;63.93;4.97;;;;;;;;;;5073990;28;20874;-73
2022/01/28 11:52:30;;;;;;;62.10;5.43;;;;;;;;;;5074086;28;20551;-73
2022/01/28 11:54:58;;;;;;;62.00;5.07;;;;;;;;;;5073490;28;20455;-73
2022/01/28 11:57:27;;;;;;;62.57;5.27;;;;;;;;;;5073777;28;20535;-73
2022/01/28 12:00:09;;;;;;;64.63;4.73;;;;;;;;;;5073823;28;20454;-72
2022/01/28 12:02:48;;;;;;;64.57;5.43;;;;;;;;;;5062424;28;20548;-72
2022/01/28 12:05:26;;;;;;;63.27;5.30;;;;;;;;;;5053538;28;20948;-72
2022/01/28 12:07:55;;;;;;;66.40;5.87;;;;;;;;;;5053014;28;20444;-72
2022/01/28 12:10:23;;;;;;;65.20;4.93;;;;;;;;;;5053745;28;20484;-73
2022/01/28 12:12:58;;;;;;;62.50;5.50;;;;;;;;;;5053343;28;20480;-73
2022/01/28 12:15:27;;;;;;;65.07;6.00;;;;;;;;;;5054463;28;20455;-75
2022/01/28 12:18:05;;;;;;;64.43;6.07;;;;;;;;;;5053257;28;20456;-74
2022/01/28 12:20:46;;;;;;;61.63;4.90;;;;;;;;;;5053761;28;20445;-74
2022/01/28 12:23:26;;;;;;;62.20;5.10;;;;;;;;;;5053362;28;20477;-74
2022/01/28 12:25:57;;;;;;;62.23;5.30;;;;;;;;;;5053340;28;20563;-74
2022/01/28 12:28:25;;;;;;;63.70;6.20;;;;;;;;;;5052469;28;20452;-73
2022/01/28 12:30:59;;;;;;;63.20;5.77;;;;;;;;;;5053522;28;20571;-74
2022/01/28 12:33:28;;;;;;;63.37;5.70;;;;;;;;;;5052120;28;20475;-74
2022/01/28 12:35:56;;;;;;;63.33;5.30;;;;;;;;;;5053483;28;20837;-74
2022/01/28 12:38:26;;;;;;;64.90;6.23;;;;;;;;;;5051750;28;20449;-74
2022/01/28 12:40:54;;;;;;;62.60;5.47;;;;;;;;;;5051859;28;20445;-74
2022/01/28 12:43:22;;;;;;;62.00;5.27;;;;;;;;;;5052093;28;20465;-74
2022/01/28 12:45:57;;;;;;;61.37;5.43;;;;;;;;;;5052479;28;20463;-74
2022/01/28 12:48:25;;;;;;;65.67;5.20;;;;;;;;;;5051686;28;20536;-74
2022/01/28 12:50:54;;;;;;;63.90;4.93;;;;;;;;;;5052060;28;20497;-74
2022/01/28 12:53:30;;;;;;;60.87;4.43;;;;;;;;;;5052188;28;20588;-74
2022/01/28 12:55:57;;;;;;;62.30;5.17;;;;;;;;;;5051433;28;20498;-75
2022/01/28 12:58:38;;;;;;;63.47;4.63;;;;;;;;;;5054195;28;20449;-75
2022/01/28 13:01:11;;;;;;;62.87;4.23;;;;;;;;;;5052384;28;20440;-75
2022/01/28 13:03:47;;;;;;;62.60;5.77;;;;;;;;;;5053909;28;20492;-72
2022/01/28 13:06:42;;;;;;;64.77;5.57;;;;;;;;;;5070810;28;20469;-74
2022/01/28 13:09:14;;;;;;;66.67;5.80;;;;;;;;;;5070549;28;20466;-76
2022/01/28 13:11:44;;;;;;;65.73;6.23;;;;;;;;;;5072577;28;20452;-75
2022/01/28 13:14:11;;;;;;;69.53;6.93;;;;;;;;;;5072030;28;20464;-75
2022/01/28 13:16:39;;;;;;;64.77;5.97;;;;;;;;;;5072314;28;20966;-76
2022/01/28 13:19:07;;;;;;;64.00;6.80;;;;;;;;;;5072529;28;20463;-77
2022/01/28 13:21:35;;;;;;;66.50;6.53;;;;;;;;;;5072410;28;20466;-74
2022/01/28 13:24:06;;;;;;;70.43;6.60;;;;;;;;;;5072130;28;20558;-74
2022/01/28 13:26:34;;;;;;;64.10;6.47;;;;;;;;;;5071593;28;20459;-72
2022/01/28 13:29:09;;;;;;;66.30;7.67;;;;;;;;;;5071375;28;20538;-76
2022/01/28 13:31:36;;;;;;;63.37;6.70;;;;;;;;;;5072316;28;20542;-74
2022/01/28 13:34:05;;;;;;;64.57;7.10;;;;;;;;;;5072024;28;20463;-73
2022/01/28 13:36:48;;;;;;;68.80;7.97;;;;;;;;;;5071866;28;21003;-74
2022/01/28 13:39:19;;;;;;;67.93;7.40;;;;;;;;;;5071595;28;20437;-73
2022/01/28 13:41:51;;;;;;;67.60;8.00;;;;;;;;;;5072168;28;20533;-76
2022/01/28 13:44:22;;;;;;;68.27;8.03;;;;;;;;;;5069533;28;20475;-75
2022/01/28 13:46:55;;;;;;;69.27;8.10;;;;;;;;;;5071494;28;20983;-77
2022/01/28 13:49:24;;;;;;;64.47;7.43;;;;;;;;;;5071194;28;21030;-76
2022/01/28 13:51:51;;;;;;;65.90;7.30;;;;;;;;;;5071621;28;20460;-76
2022/01/28 13:54:20;;;;;;;68.00;8.57;;;;;;;;;;5071669;28;20503;-76
2022/01/28 13:56:49;;;;;;;69.00;7.33;;;;;;;;;;5072016;28;20943;-76
2022/01/28 13:59:17;;;;;;;66.73;7.77;;;;;;;;;;5072021;28;20457;-76
2022/01/28 14:01:45;;;;;;;67.60;7.90;;;;;;;;;;5071862;28;20590;-77
2022/01/28 14:04:20;;;;;;;63.80;7.10;;;;;;;;;;5071354;28;20479;-76
2022/01/28 14:06:47;;;;;;;64.83;6.53;;;;;;;;;;5071603;28;21035;-76
2022/01/28 14:09:17;;;;;;;62.57;6.80;;;;;;;;;;5071149;28;20454;-74
2022/01/28 14:11:47;;;;;;;62.70;6.23;;;;;;;;;;5072053;28;20436;-74
2022/01/28 14:14:23;;;;;;;63.10;7.27;;;;;;;;;;5066495;28;20487;-74
2022/01/28 14:16:51;;;;;;;64.00;6.60;;;;;;;;;;5051413;28;20444;-75
2022/01/28 14:19:18;;;;;;;66.87;7.90;;;;;;;;;;5054473;28;20460;-76
2022/01/28 14:21:45;;;;;;;66.23;7.43;;;;;;;;;;5055701;28;20937;-76
2022/01/28 14:24:14;;;;;;;65.33;7.43;;;;;;;;;;5055855;28;20503;-74
2022/01/28 14:26:43;;;;;;;69.90;7.50;;;;;;;;;;5055249;28;20451;-76
2022/01/28 14:31:54;;;;;;;65.83;6.50;;;;;;;;;;5053423;28;20445;-76
2022/01/28 14:34:22;;;;;;;72.87;6.47;;;;;;;;;;5055378;28;20460;-75
2022/01/28 14:36:49;;;;;;;68.07;6.57;;;;;;;;;;5055184;28;20543;-76
2022/01/28 14:39:17;;;;;;;64.40;6.50;;;;;;;;;;5055264;28;20449;-75
2022/01/28 14:41:45;;;;;;;62.80;6.20;;;;;;;;;;5055162;28;20533;-75
2022/01/28 14:44:12;;;;;;;66.40;6.87;;;;;;;;;;5055301;28;20465;-75
2022/01/28 14:46:39;;;;;;;63.83;6.33;;;;;;;;;;5063965;28;20549;-75
2022/01/28 14:49:08;;;;;;;63.40;7.13;;;;;;;;;;5074104;28;20972;-75
2022/01/28 14:51:36;;;;;;;68.75;6.80;;;;;;;;;;5075263;28;20859;-75
2022/01/28 14:54:04;;;;;;;64.73;7.13;;;;;;;;;;5074988;28;20225;-75
2022/01/28 14:56:31;;;;;;;63.53;6.50;;;;;;;;;;5074981;28;20454;-75
2022/01/28 14:59:00;;;;;;;64.68;7.40;;;;;;;;;;5076300;28;20491;-75
2022/01/28 15:01:28;;;;;;;66.45;7.45;;;;;;;;;;5077265;28;20205;-75
2022/01/28 15:03:58;;;;;;;68.85;7.65;;;;;;;;;;5074699;28;20773;-75
2022/01/28 15:06:27;;;;;;;65.85;6.38;;;;;;;;;;5074556;28;20209;-75
2022/01/28 15:08:59;;;;;;;68.40;9.50;;;;;;;;;;5073699;28;20293;-74
2022/01/28 15:11:35;;;;;;;67.45;6.40;;;;;;;;;;5074750;28;20287;-74
2022/01/28 15:14:02;;;;;;;67.85;7.95;;;;;;;;;;5075163;28;20573;-74
2022/01/28 15:16:29;;;;;;;64.20;6.68;;;;;;;;;;5074793;28;20212;-74
2022/01/28 15:18:56;;;;;;;69.50;7.82;;;;;;;;;;5072961;28;20212;-74
2022/01/28 15:21:23;;;;;;;67.90;6.93;;;;;;;;;;5074479;28;20692;-74
2022/01/28 15:23:52;;;;;;;62.83;6.88;;;;;;;;;;5074191;28;20560;-74
2022/01/28 15:26:19;;;;;;;64.55;7.07;;;;;;;;;;5074534;28;20211;-75
2022/01/28 15:28:59;;;;;;;63.17;6.65;;;;;;;;;;5073590;28;20726;-74
2022/01/28 15:36:54;;;;;;;67.05;7.00;;;;;;;;;;5073858;28;20304;-74
2022/01/28 15:39:23;;;;;;;66.05;6.72;;;;;;;;;;5074090;28;20589;-75
2022/01/28 15:41:52;;;;;;;64.50;7.93;;;;;;;;;;5074113;28;20213;-75
2022/01/28 15:44:19;;;;;;;69.15;8.13;;;;;;;;;;5073785;28;20237;-75